createdAt,value
2022-12-23T00:01:27.715Z,25.52
2022-12-23T00:03:58.357Z,26.60
2022-12-23T00:06:25.633Z,26.10
2022-12-23T00:08:58.713Z,25.95
2022-12-23T00:11:27.085Z,26.88
2022-12-23T00:14:20.679Z,24.85
2022-12-23T00:16:49.472Z,24.15
2022-12-23T00:19:16.442Z,24.55
2022-12-23T00:21:43.470Z,23.13
2022-12-23T00:24:12.095Z,24.40
2022-12-23T00:26:39.126Z,22.30
2022-12-23T00:29:07.507Z,23.27
2022-12-23T00:31:34.548Z,23.45
2022-12-23T00:34:01.534Z,21.40
2022-12-23T00:36:30.866Z,20.67
2022-12-23T00:39:18.029Z,21.88
2022-12-23T00:42:04.489Z,20.27
2022-12-23T00:44:33.063Z,20.52
2022-12-23T00:47:00.029Z,20.45
2022-12-23T00:49:41.974Z,20.70
2022-12-23T00:52:11.249Z,19.23
2022-12-23T00:54:38.219Z,20.70
2022-12-23T00:57:05.501Z,18.10
2022-12-23T00:59:34.093Z,19.70
2022-12-23T01:02:20.135Z,19.60
2022-12-23T01:05:05.718Z,17.27
2022-12-23T01:07:32.665Z,16.77
2022-12-23T01:09:59.787Z,19.88
2022-12-23T01:12:26.775Z,19.08
2022-12-23T01:14:55.165Z,18.85
2022-12-23T01:17:22.253Z,17.67
2022-12-23T01:19:49.255Z,18.42
2022-12-23T01:22:16.333Z,18.00
2022-12-23T01:24:43.316Z,19.70
2022-12-23T01:27:10.321Z,18.40
2022-12-23T01:29:37.340Z,18.63
2022-12-23T01:32:05.920Z,18.45
2022-12-23T01:34:36.997Z,16.08
2022-12-23T01:37:04.825Z,16.23
2022-12-23T01:39:31.874Z,15.15
2022-12-23T01:42:17.289Z,16.75
2022-12-23T01:44:55.501Z,15.80
2022-12-23T01:47:28.853Z,17.02
2022-12-23T01:50:06.336Z,17.00
2022-12-23T01:52:38.899Z,16.35
2022-12-23T01:55:07.239Z,16.58
2022-12-23T01:57:35.886Z,17.27
2022-12-23T02:00:24.111Z,17.15
2022-12-23T02:03:11.554Z,18.80
2022-12-23T02:05:39.034Z,18.15
2022-12-23T02:08:25.387Z,20.17
2022-12-23T02:11:17.593Z,18.70
2022-12-23T02:14:09.847Z,19.05
2022-12-23T02:16:43.277Z,18.85
2022-12-23T02:19:17.829Z,19.63
2022-12-23T02:21:58.604Z,19.90
2022-12-23T02:25:01.965Z,17.92
2022-12-23T02:27:31.980Z,18.58
2022-12-23T02:30:31.703Z,17.63
2022-12-23T02:33:22.992Z,18.27
2022-12-23T02:35:57.903Z,17.58
2022-12-23T02:38:29.752Z,17.15
2022-12-23T02:41:04.581Z,16.83
2022-12-23T02:43:40.026Z,17.38
2022-12-23T02:46:11.407Z,17.00
2022-12-23T02:48:46.427Z,18.13
2022-12-23T02:51:15.598Z,16.27
2022-12-23T02:53:47.993Z,17.98
2022-12-23T02:56:17.709Z,17.05
2022-12-23T02:58:58.531Z,17.58
2022-12-23T03:01:27.777Z,18.08
2022-12-23T03:03:56.260Z,16.67
2022-12-23T03:06:31.339Z,16.77
2022-12-23T03:09:00.017Z,18.05
2022-12-23T03:11:40.307Z,17.98
2022-12-23T03:14:33.757Z,18.02
2022-12-23T03:17:14.913Z,19.13
2022-12-23T03:19:51.634Z,18.15
2022-12-23T03:22:24.583Z,16.00
2022-12-23T03:24:55.789Z,16.17
2022-12-23T03:27:27.616Z,15.68
2022-12-23T03:30:00.866Z,16.15
2022-12-23T03:32:29.475Z,14.88
2022-12-23T03:35:01.246Z,15.98
2022-12-23T03:37:32.550Z,15.27
2022-12-23T03:40:04.897Z,14.20
2022-12-23T03:42:36.259Z,20.73
2022-12-23T03:45:37.533Z,27.83
2022-12-23T03:47:59.959Z,24.73
2022-12-23T03:50:30.064Z,19.35
2022-12-23T03:53:01.976Z,18.65
2022-12-23T03:55:34.439Z,17.02
2022-12-23T03:58:09.979Z,16.35
2022-12-23T04:00:44.854Z,16.77
2022-12-23T04:03:19.386Z,17.23
2022-12-23T04:05:53.273Z,18.88
2022-12-23T04:08:24.364Z,26.20
2022-12-23T04:10:51.887Z,34.30
2022-12-23T04:13:19.235Z,26.48
2022-12-23T04:15:46.308Z,25.63
2022-12-23T04:18:13.604Z,23.42
2022-12-23T04:20:40.593Z,21.77
2022-12-23T04:23:08.989Z,21.92
2022-12-23T04:25:35.971Z,20.83
2022-12-23T04:28:02.950Z,22.30
2022-12-23T04:30:34.472Z,20.73
2022-12-23T04:33:02.569Z,19.60
2022-12-23T04:35:29.573Z,18.67
2022-12-23T04:37:56.641Z,19.08
2022-12-23T04:40:25.028Z,19.23
2022-12-23T04:42:52.366Z,18.70
2022-12-23T04:45:19.553Z,17.73
2022-12-23T04:47:46.663Z,19.27
2022-12-23T04:50:14.920Z,19.92
2022-12-23T04:52:41.951Z,26.00
2022-12-23T04:55:09.737Z,28.30
2022-12-23T04:57:38.102Z,31.33
2022-12-23T05:00:06.225Z,29.15
2022-12-23T05:02:33.228Z,29.38
2022-12-23T05:05:00.273Z,36.95
2022-12-23T05:07:27.319Z,35.75
2022-12-23T05:09:54.394Z,34.13
2022-12-23T05:12:21.337Z,28.70
2022-12-23T05:14:49.737Z,20.75
2022-12-23T05:17:16.706Z,20.00
2022-12-23T05:19:43.697Z,18.33
2022-12-23T05:22:10.675Z,18.38
2022-12-23T05:24:37.608Z,18.08
2022-12-23T05:27:04.588Z,15.85
2022-12-23T05:29:31.676Z,20.13
2022-12-23T05:32:00.089Z,17.83
2022-12-23T05:34:27.193Z,16.20
2022-12-23T05:36:54.199Z,15.20
2022-12-23T05:39:21.155Z,14.55
2022-12-23T05:41:48.248Z,14.48
2022-12-23T05:44:15.178Z,12.80
2022-12-23T05:46:42.513Z,13.02
2022-12-23T05:49:11.072Z,13.02
2022-12-23T05:51:38.050Z,13.68
2022-12-23T05:54:05.125Z,13.07
2022-12-23T05:56:32.108Z,12.57
2022-12-23T05:58:59.142Z,12.63
2022-12-23T06:01:26.211Z,12.48
2022-12-23T06:03:53.320Z,13.07
2022-12-23T06:06:21.854Z,13.05
2022-12-23T06:08:51.979Z,12.40
2022-12-23T06:11:21.557Z,12.88
2022-12-23T06:13:48.586Z,14.02
2022-12-23T06:16:15.727Z,13.10
2022-12-23T06:18:42.757Z,12.63
2022-12-23T06:21:09.847Z,13.68
2022-12-23T06:23:38.150Z,13.10
2022-12-23T06:26:05.443Z,12.40
2022-12-23T06:28:32.380Z,12.43
2022-12-23T06:30:59.512Z,11.80
2022-12-23T06:33:26.707Z,12.00
2022-12-23T06:35:53.839Z,11.25
2022-12-23T06:38:20.809Z,12.50
2022-12-23T06:40:49.307Z,11.65
2022-12-23T06:43:16.341Z,10.63
2022-12-23T06:45:46.596Z,11.85
2022-12-23T06:48:13.821Z,12.00
2022-12-23T06:50:40.837Z,11.93
2022-12-23T06:53:08.746Z,12.40
2022-12-23T06:55:35.837Z,12.20
2022-12-23T06:58:04.786Z,11.73
2022-12-23T07:00:32.192Z,13.82
2022-12-23T07:02:59.414Z,13.18
2022-12-23T07:05:29.470Z,13.43
2022-12-23T07:08:00.428Z,14.32
2022-12-23T07:10:27.392Z,15.43
2022-12-23T07:12:54.340Z,16.70
2022-12-23T07:15:24.564Z,17.50
2022-12-23T07:17:51.579Z,22.90
2022-12-23T07:20:18.747Z,18.77
2022-12-23T07:22:45.896Z,23.15
2022-12-23T07:25:13.766Z,33.25
2022-12-23T07:27:40.896Z,28.27
2022-12-23T07:30:09.119Z,30.25
2022-12-23T07:32:37.609Z,26.75
2022-12-23T07:35:05.298Z,33.40
2022-12-23T07:37:32.311Z,43.20
2022-12-23T07:40:02.303Z,41.67
2022-12-23T07:42:45.227Z,35.70
2022-12-23T07:45:12.872Z,25.80
2022-12-23T07:47:41.929Z,24.95
2022-12-23T07:50:09.627Z,20.67
2022-12-23T07:52:36.964Z,20.05
2022-12-23T07:55:05.432Z,21.05
2022-12-23T07:57:37.893Z,21.05
2022-12-23T08:00:07.354Z,26.65
2022-12-23T08:02:40.968Z,34.80
2022-12-23T08:05:09.163Z,37.17
2022-12-23T08:07:36.668Z,27.52
2022-12-23T08:10:04.413Z,22.25
2022-12-23T08:12:31.907Z,24.17
2022-12-23T08:14:59.141Z,27.67
2022-12-23T08:17:26.826Z,20.15
2022-12-23T08:19:55.249Z,19.20
2022-12-23T08:22:22.486Z,19.52
2022-12-23T08:24:50.328Z,22.73
2022-12-23T08:27:17.699Z,28.15
2022-12-23T08:29:44.641Z,34.22
2022-12-23T08:32:11.863Z,39.10
2022-12-23T08:34:39.037Z,39.40
2022-12-23T08:37:07.390Z,33.42
2022-12-23T08:39:34.810Z,48.95
2022-12-23T08:42:01.810Z,44.35
2022-12-23T08:44:29.820Z,36.40
2022-12-23T08:46:57.244Z,35.97
2022-12-23T08:49:24.498Z,32.38
2022-12-23T08:51:51.711Z,28.52
2022-12-23T08:54:20.578Z,29.38
2022-12-23T08:56:47.663Z,28.50
2022-12-23T08:59:19.531Z,27.02
2022-12-23T09:01:48.274Z,28.38
2022-12-23T09:04:15.835Z,27.55
2022-12-23T09:06:43.803Z,26.85
2022-12-23T09:09:12.547Z,30.73
2022-12-23T09:11:40.916Z,30.65
2022-12-23T09:14:10.286Z,27.35
2022-12-23T09:16:37.676Z,25.67
2022-12-23T09:19:04.974Z,49.78
2022-12-23T09:21:31.927Z,27.20
2022-12-23T09:23:59.237Z,27.90
2022-12-23T09:26:27.979Z,25.00
2022-12-23T09:28:57.145Z,25.23
2022-12-23T09:31:27.993Z,23.55
2022-12-23T09:36:26.344Z,25.52
2022-12-23T09:38:57.754Z,26.20
2022-12-23T09:41:34.998Z,26.55
2022-12-23T09:44:21.208Z,26.90
2022-12-23T09:46:51.765Z,23.85
2022-12-23T09:49:22.557Z,24.38
2022-12-23T09:51:54.159Z,24.30
2022-12-23T09:54:23.556Z,24.95
2022-12-23T09:56:54.084Z,25.20
2022-12-23T09:59:35.337Z,22.45
2022-12-23T10:02:16.578Z,25.13
2022-12-23T10:04:50.166Z,23.85
2022-12-23T10:07:28.952Z,23.27
2022-12-23T10:09:58.134Z,23.20
2022-12-23T10:12:39.533Z,45.33
2022-12-23T10:15:19.315Z,33.95
2022-12-23T10:17:47.387Z,32.42
2022-12-23T10:20:19.268Z,26.15
2022-12-23T10:22:47.407Z,21.40
2022-12-23T10:25:20.467Z,23.23
2022-12-23T10:27:47.506Z,23.23
2022-12-23T10:30:51.496Z,20.40
2022-12-23T10:33:13.781Z,20.23
2022-12-23T10:35:54.851Z,21.67
2022-12-23T10:38:36.259Z,20.65
2022-12-23T10:41:11.931Z,13.20
2022-12-23T10:46:25.326Z,15.40
2022-12-23T10:49:00.312Z,14.73
2022-12-23T10:51:32.702Z,12.40
2022-12-23T10:54:04.129Z,14.73
2022-12-23T10:56:32.186Z,13.07
2022-12-23T10:59:01.264Z,12.05
2022-12-23T11:01:31.315Z,10.88
2022-12-23T11:04:04.854Z,10.52
2022-12-23T11:06:37.725Z,9.52
2022-12-23T11:09:06.447Z,9.35
2022-12-23T11:11:56.713Z,9.38
2022-12-23T11:14:31.981Z,8.77
2022-12-23T11:19:27.743Z,7.20
2022-12-23T11:21:56.147Z,7.50
2022-12-23T11:24:24.611Z,9.68
2022-12-23T11:27:00.768Z,7.53
2022-12-23T11:29:31.971Z,6.50
2022-12-23T11:32:02.923Z,4.90
2022-12-23T11:34:36.308Z,4.60
2022-12-23T11:37:07.483Z,4.60
2022-12-23T11:39:36.768Z,5.03
2022-12-23T11:42:07.540Z,4.75
2022-12-23T11:44:40.316Z,4.88
2022-12-23T11:47:29.347Z,4.78
2022-12-23T11:49:57.923Z,5.35
2022-12-23T11:52:26.934Z,4.97
2022-12-23T11:54:55.836Z,5.30
2022-12-23T11:57:28.264Z,5.07
2022-12-23T11:59:59.567Z,4.22
2022-12-23T12:02:35.685Z,4.85
2022-12-23T12:05:07.953Z,4.35
2022-12-23T12:07:35.937Z,4.93
2022-12-23T12:10:04.133Z,4.80
2022-12-23T12:12:35.703Z,4.82
2022-12-23T12:15:03.107Z,4.47
2022-12-23T12:17:38.260Z,4.68
2022-12-23T12:20:12.188Z,4.88
2022-12-23T12:22:44.947Z,5.30
2022-12-23T12:25:18.302Z,5.05
2022-12-23T12:27:50.008Z,5.05
2022-12-23T12:30:20.247Z,5.97
2022-12-23T12:32:55.123Z,7.22
2022-12-23T12:35:31.005Z,7.45
2022-12-23T12:38:05.306Z,6.75
2022-12-23T12:40:36.607Z,7.43
2022-12-23T12:43:11.944Z,7.28
2022-12-23T12:45:46.013Z,6.75
2022-12-23T12:48:46.773Z,6.00
2022-12-23T12:51:22.676Z,5.45
2022-12-23T12:54:05.570Z,5.70
2022-12-23T12:56:40.365Z,5.63
2022-12-23T12:59:15.712Z,5.90
2022-12-23T13:01:53.118Z,6.13
2022-12-23T13:04:41.573Z,6.57
2022-12-23T13:07:17.025Z,5.60
2022-12-23T13:09:55.384Z,6.70
2022-12-23T13:12:31.253Z,5.88
2022-12-23T13:15:04.433Z,6.68
2022-12-23T13:17:35.154Z,7.10
2022-12-23T13:20:16.458Z,6.47
2022-12-23T13:22:47.470Z,7.25
2022-12-23T13:25:19.801Z,7.10
2022-12-23T13:27:54.872Z,6.40
2022-12-23T13:30:23.898Z,6.32
2022-12-23T13:33:20.921Z,6.68
2022-12-23T13:36:06.130Z,6.82
2022-12-23T13:41:16.471Z,6.72
2022-12-23T13:43:49.070Z,6.18
2022-12-23T13:46:25.453Z,6.45
2022-12-23T13:48:58.993Z,6.85
2022-12-23T13:51:35.127Z,6.90
2022-12-23T13:54:15.328Z,6.45
2022-12-23T13:56:47.519Z,6.25
2022-12-23T13:59:16.769Z,7.20
2022-12-23T14:01:46.833Z,7.57
2022-12-23T14:04:32.589Z,8.00
2022-12-23T14:09:32.528Z,9.63
2022-12-23T14:12:26.331Z,8.70
2022-12-23T14:15:21.287Z,8.15
2022-12-23T14:18:02.559Z,8.50
2022-12-23T14:20:43.227Z,8.10
2022-12-23T14:23:27.705Z,8.45
2022-12-23T14:26:07.314Z,8.63
2022-12-23T14:29:06.631Z,9.15
2022-12-23T14:31:38.736Z,10.02
2022-12-23T14:34:24.616Z,10.30
2022-12-23T14:37:24.791Z,10.55
2022-12-23T14:39:53.845Z,10.25
2022-12-23T14:42:34.688Z,10.20
2022-12-23T14:45:40.225Z,10.48
2022-12-23T14:49:04.503Z,10.32
2022-12-23T14:51:40.245Z,10.18
2022-12-23T14:54:17.027Z,23.10
2022-12-23T14:57:07.975Z,16.40
2022-12-23T14:59:46.798Z,12.18
2022-12-23T15:02:22.515Z,10.45
2022-12-23T15:04:53.866Z,9.85
2022-12-23T15:07:26.087Z,8.82
2022-12-23T15:10:00.745Z,9.10
2022-12-23T15:15:01.203Z,8.27
2022-12-23T15:17:30.240Z,8.38
2022-12-23T15:20:08.254Z,8.40
2022-12-23T15:22:35.413Z,9.23
2022-12-23T15:25:02.416Z,9.65
2022-12-23T15:27:35.465Z,10.57
2022-12-23T15:30:02.678Z,10.35
2022-12-23T15:32:30.075Z,11.43
2022-12-23T15:35:02.769Z,13.70
2022-12-23T15:37:30.861Z,13.43
2022-12-23T15:40:09.441Z,11.23
2022-12-23T15:42:47.065Z,12.18
2022-12-23T15:45:34.389Z,13.13
2022-12-23T15:48:02.933Z,15.43
2022-12-23T15:50:30.806Z,13.10
2022-12-23T15:53:05.049Z,11.65
2022-12-23T15:55:33.600Z,12.70
2022-12-23T15:58:04.006Z,11.23
2022-12-23T16:00:38.223Z,10.23
2022-12-23T16:03:10.422Z,9.55
2022-12-23T16:05:44.902Z,11.20
2022-12-23T16:08:28.591Z,10.40
2022-12-23T16:11:03.360Z,9.75
2022-12-23T16:13:32.722Z,9.95
2022-12-23T16:16:17.938Z,9.02
2022-12-23T16:18:47.676Z,9.82
2022-12-23T16:21:15.516Z,8.38
2022-12-23T16:23:50.541Z,9.02
2022-12-23T16:26:18.380Z,9.00
2022-12-23T16:28:48.392Z,9.52
2022-12-23T16:31:17.653Z,9.68
2022-12-23T16:33:48.232Z,9.23
2022-12-23T16:36:22.287Z,9.80
2022-12-23T16:38:51.421Z,8.63
2022-12-23T16:41:19.679Z,9.20
2022-12-23T16:43:52.475Z,9.02
2022-12-23T16:46:22.372Z,9.88
2022-12-23T16:48:51.307Z,9.45
2022-12-23T16:51:20.751Z,9.35
2022-12-23T16:53:47.985Z,9.07
2022-12-23T16:56:16.667Z,10.23
2022-12-23T16:58:44.181Z,9.02
2022-12-23T17:01:15.265Z,9.50
2022-12-23T17:03:42.492Z,10.52
2022-12-23T17:06:12.650Z,10.70
2022-12-23T17:08:39.585Z,10.48
2022-12-23T17:11:12.375Z,11.05
2022-12-23T17:13:39.437Z,10.70
2022-12-23T17:16:10.086Z,10.88
2022-12-23T17:18:38.496Z,11.20
2022-12-23T17:21:05.829Z,10.43
2022-12-23T17:23:32.966Z,10.25
2022-12-23T17:26:01.132Z,9.93
2022-12-23T17:28:30.225Z,9.20
2022-12-23T17:30:58.249Z,8.88
2022-12-23T17:33:29.040Z,10.48
2022-12-23T17:35:57.750Z,8.65
2022-12-23T17:38:25.071Z,10.25
2022-12-23T17:40:52.176Z,9.43
2022-12-23T17:43:19.150Z,9.82
2022-12-23T17:45:47.168Z,10.27
2022-12-23T17:48:20.824Z,9.85
2022-12-23T17:50:50.387Z,9.63
2022-12-23T17:53:19.877Z,9.40
2022-12-23T17:55:46.937Z,9.38
2022-12-23T17:58:14.494Z,8.70
2022-12-23T18:00:41.614Z,9.45
2022-12-23T18:03:20.893Z,9.85
2022-12-23T18:05:47.931Z,10.13
2022-12-23T18:08:15.368Z,9.50
2022-12-23T18:10:44.495Z,10.80
2022-12-23T18:13:15.820Z,9.77
2022-12-23T18:15:44.548Z,10.07
2022-12-23T18:18:16.832Z,9.55
2022-12-23T18:20:50.535Z,11.15
2022-12-23T18:23:22.491Z,9.48
2022-12-23T18:25:50.970Z,9.75
2022-12-23T18:28:17.951Z,10.90
2022-12-23T18:30:45.413Z,11.50
2022-12-23T18:33:13.132Z,11.15
2022-12-23T18:35:44.085Z,11.75
2022-12-23T18:38:11.481Z,11.57
2022-12-23T18:40:39.436Z,11.63
2022-12-23T18:43:17.887Z,11.95
2022-12-23T18:45:52.470Z,10.93
2022-12-23T18:48:21.520Z,11.20
2022-12-23T18:50:48.855Z,11.35
2022-12-23T18:53:23.443Z,10.60
2022-12-23T18:55:51.574Z,11.35
2022-12-23T18:58:20.149Z,12.15
2022-12-23T19:00:48.484Z,11.77
2022-12-23T19:03:21.881Z,13.95
2022-12-23T19:05:50.037Z,13.10
2022-12-23T19:08:23.612Z,13.57
2022-12-23T19:10:53.379Z,13.77
2022-12-23T19:13:21.849Z,14.27
2022-12-23T19:15:48.928Z,12.40
2022-12-23T19:18:17.963Z,13.68
2022-12-23T19:20:46.097Z,11.77
2022-12-23T19:23:13.657Z,12.15
2022-12-23T19:25:41.866Z,14.68
2022-12-23T19:28:09.525Z,14.27
2022-12-23T19:30:40.675Z,13.05
2022-12-23T19:33:07.758Z,13.00
2022-12-23T19:35:34.752Z,13.55
2022-12-23T19:38:01.737Z,13.60
2022-12-23T19:40:29.236Z,12.57
2022-12-23T19:42:56.224Z,13.43
2022-12-23T19:45:23.159Z,13.82
2022-12-23T19:47:51.432Z,14.48
2022-12-23T19:50:19.772Z,12.90
2022-12-23T19:52:46.798Z,14.23
2022-12-23T19:55:15.634Z,13.05
2022-12-23T19:57:43.232Z,14.57
2022-12-23T20:00:11.273Z,14.18
2022-12-23T20:02:41.417Z,13.75
2022-12-23T20:05:10.315Z,14.20
2022-12-23T20:07:37.525Z,14.20
2022-12-23T20:10:05.789Z,15.38
2022-12-23T20:12:33.127Z,14.88
2022-12-23T20:15:00.221Z,15.00
2022-12-23T20:17:27.185Z,13.48
2022-12-23T20:19:54.171Z,14.88
2022-12-23T20:22:22.475Z,15.50
2022-12-23T20:24:49.876Z,15.07
2022-12-23T20:27:20.154Z,13.05
2022-12-23T20:29:49.756Z,13.50
2022-12-23T20:32:16.680Z,12.95
2022-12-23T20:34:43.611Z,12.95
2022-12-23T20:37:11.814Z,12.82
2022-12-23T20:39:40.230Z,13.25
2022-12-23T20:42:07.172Z,12.07
2022-12-23T20:44:35.997Z,13.38
2022-12-23T20:47:04.093Z,12.98
2022-12-23T20:49:31.221Z,13.18
2022-12-23T20:51:58.228Z,12.35
2022-12-23T20:54:32.190Z,12.20
2022-12-23T20:57:02.699Z,13.05
2022-12-23T20:59:29.704Z,12.95
2022-12-23T21:01:59.118Z,14.90
2022-12-23T21:04:26.739Z,14.02
2022-12-23T21:06:53.794Z,14.32
2022-12-23T21:09:20.816Z,15.38
2022-12-23T21:11:48.223Z,16.52
2022-12-23T21:14:17.073Z,15.70
2022-12-23T21:16:44.484Z,15.43
2022-12-23T21:19:15.467Z,16.17
2022-12-23T21:21:42.497Z,18.42
2022-12-23T21:24:10.564Z,20.52
2022-12-23T21:26:38.034Z,24.65
2022-12-23T21:29:06.834Z,22.88
2022-12-23T21:31:37.764Z,22.65
2022-12-23T21:34:05.589Z,23.45
2022-12-23T21:36:34.302Z,22.60
2022-12-23T21:39:01.590Z,21.30
2022-12-23T21:41:30.205Z,20.92
2022-12-23T21:43:57.859Z,20.83
2022-12-23T21:46:26.237Z,19.85
2022-12-23T21:48:55.667Z,19.73
2022-12-23T21:51:25.013Z,21.45
2022-12-23T21:53:53.717Z,20.27
2022-12-23T21:56:24.292Z,23.50
2022-12-23T21:58:55.012Z,25.20
2022-12-23T22:01:22.392Z,24.08
2022-12-23T22:03:50.622Z,23.38
2022-12-23T22:06:21.988Z,23.42
2022-12-23T22:08:50.291Z,20.95
2022-12-23T22:11:19.882Z,19.83
2022-12-23T22:13:47.622Z,21.80
2022-12-23T22:16:16.608Z,21.75
2022-12-23T22:18:44.769Z,23.77
2022-12-23T22:21:13.860Z,23.45
2022-12-23T22:23:42.727Z,25.73
2022-12-23T22:26:12.674Z,31.85
2022-12-23T22:28:40.292Z,30.95
2022-12-23T22:31:11.944Z,29.15
2022-12-23T22:33:38.963Z,31.77
2022-12-23T22:36:06.832Z,37.35
2022-12-23T22:38:33.866Z,40.85
2022-12-23T22:41:02.212Z,34.83
2022-12-23T22:43:29.136Z,29.58
2022-12-23T22:45:57.400Z,34.75
2022-12-23T22:48:24.981Z,32.50
2022-12-23T22:50:53.805Z,30.42
2022-12-23T22:53:26.281Z,30.15
2022-12-23T22:55:57.574Z,28.83
2022-12-23T22:58:26.630Z,29.38
2022-12-23T23:00:53.781Z,29.80
2022-12-23T23:03:20.793Z,34.80
2022-12-23T23:05:56.551Z,32.45
2022-12-23T23:08:24.028Z,33.10
2022-12-23T23:10:51.044Z,31.77
2022-12-23T23:13:18.088Z,27.88
2022-12-23T23:15:47.740Z,25.58
2022-12-23T23:18:14.700Z,31.73
2022-12-23T23:20:41.993Z,29.83
2022-12-23T23:23:09.004Z,31.70
2022-12-23T23:25:36.000Z,25.45
2022-12-23T23:28:02.972Z,24.00
2022-12-23T23:30:29.972Z,28.23
2022-12-23T23:32:58.334Z,24.15
2022-12-23T23:35:25.322Z,35.40
2022-12-23T23:37:52.399Z,32.97
2022-12-23T23:40:19.381Z,40.47
2022-12-23T23:42:46.339Z,40.78
2022-12-23T23:45:13.367Z,38.97
2022-12-23T23:47:40.323Z,40.72
2022-12-23T23:50:09.535Z,37.30
2022-12-23T23:52:36.546Z,38.58
2022-12-23T23:55:03.720Z,35.35
2022-12-23T23:57:30.768Z,37.22
2022-12-23T23:59:57.802Z,36.85
